createdAt,value
2016-04-27T00:00:35.466Z,41.71
2016-04-27T00:01:35.484Z,41.71
2016-04-27T00:02:35.471Z,41.61
2016-04-27T00:03:35.490Z,41.41
2016-04-27T00:04:35.477Z,41.51
2016-04-27T00:05:35.495Z,41.49
2016-04-27T00:06:35.498Z,41.51
2016-04-27T00:07:35.500Z,41.68
2016-04-27T00:08:35.504Z,41.41
2016-04-27T00:09:35.521Z,41.49
2016-04-27T00:10:35.508Z,41.59
2016-04-27T00:11:35.526Z,41.49
2016-04-27T00:12:35.514Z,41.49
2016-04-27T00:13:35.532Z,41.49
2016-04-27T00:14:35.534Z,41.41
2016-04-27T00:15:35.553Z,41.49
2016-04-27T00:16:35.555Z,41.59
2016-04-27T00:17:35.558Z,41.32
2016-04-27T00:18:35.577Z,41.32
2016-04-27T00:19:35.563Z,41.59
2016-04-27T00:20:35.583Z,41.39
2016-04-27T00:21:35.897Z,41.3
2016-04-27T00:22:38.853Z,41.49
2016-04-27T00:23:35.591Z,41.61
2016-04-27T00:24:35.608Z,41.59
2016-04-27T00:25:35.611Z,41.3
2016-04-27T00:26:35.613Z,41.59
2016-04-27T00:27:35.616Z,41.49
2016-04-27T00:28:35.650Z,41.39
2016-04-27T00:29:35.622Z,41.68
2016-04-27T00:30:35.655Z,41.71
2016-04-27T00:31:35.643Z,41.59
2016-04-27T00:32:35.646Z,41.3
2016-04-27T00:33:35.664Z,41.39
2016-04-27T00:34:35.651Z,41.59
2016-04-27T00:35:35.669Z,41.3
2016-04-27T00:36:35.515Z,41.59
2016-04-27T00:37:35.690Z,41.68
2016-04-27T00:38:35.693Z,41.59
2016-04-27T00:39:35.711Z,41.51
2016-04-27T00:40:35.702Z,41.39
2016-04-27T00:41:35.720Z,41.59
2016-04-27T00:42:35.728Z,41.49
2016-04-27T00:43:35.705Z,41.49
2016-04-27T00:44:43.770Z,41.3
2016-04-27T00:45:35.731Z,41.59
2016-04-27T00:46:35.718Z,41.49
2016-04-27T00:47:35.720Z,41.3
2016-04-27T00:48:35.754Z,41.49
2016-04-27T00:49:35.742Z,41.49
2016-04-27T00:50:35.760Z,41.3
2016-04-27T00:51:35.762Z,41.3
2016-04-27T00:52:35.765Z,41.49
2016-04-27T00:53:35.767Z,41.59
2016-04-27T00:54:35.769Z,41.59
2016-04-27T00:55:35.773Z,41.3
2016-04-27T00:56:35.776Z,41.3
2016-04-27T00:57:35.794Z,41.68
2016-04-27T00:58:35.796Z,41.39
2016-04-27T00:59:35.800Z,41.39
2016-04-27T01:00:35.802Z,41.59
2016-04-27T01:01:35.820Z,41.59
2016-04-27T01:02:35.823Z,41.59
2016-04-27T01:03:35.825Z,41.59
2016-04-27T01:04:35.860Z,41.59
2016-04-27T01:05:35.846Z,41.59
2016-04-27T01:06:35.709Z,41.59
2016-04-27T01:07:35.868Z,41.49
2016-04-27T01:08:35.870Z,41.59
2016-04-27T01:09:35.874Z,41.39
2016-04-27T01:10:35.860Z,41.3
2016-04-27T01:11:35.878Z,41.59
2016-04-27T01:12:35.896Z,41.3
2016-04-27T01:13:35.899Z,41.39
2016-04-27T01:14:35.887Z,41.3
2016-04-27T01:15:35.904Z,41.3
2016-04-27T01:16:35.907Z,41.3
2016-04-27T01:17:35.910Z,41.3
2016-04-27T01:18:35.912Z,41.49
2016-04-27T01:19:35.931Z,41.49
2016-04-27T01:20:35.918Z,41.59
2016-04-27T01:21:36.123Z,41.39
2016-04-27T01:22:35.929Z,41.3
2016-04-27T01:23:35.949Z,41.68
2016-04-27T01:24:35.952Z,41.59
2016-04-27T01:25:35.955Z,41.39
2016-04-27T01:26:35.958Z,41.59
2016-04-27T01:27:35.975Z,41.59
2016-04-27T01:28:35.978Z,41.59
2016-04-27T01:29:35.981Z,41.39
2016-04-27T01:30:35.984Z,41.39
2016-04-27T01:31:36.002Z,41.3
2016-04-27T01:32:36.005Z,41.39
2016-04-27T01:33:36.008Z,41.39
2016-04-27T01:34:36.011Z,41.39
2016-04-27T01:35:36.029Z,41.59
2016-04-27T01:36:36.563Z,41.59
2016-04-27T01:37:36.035Z,41.59
2016-04-27T01:38:36.037Z,41.3
2016-04-27T01:39:36.040Z,41.39
2016-04-27T01:40:36.042Z,41.3
2016-04-27T01:41:36.060Z,41.49
2016-04-27T01:42:36.048Z,41.39
2016-04-27T01:43:36.081Z,41.3
2016-04-27T01:44:36.084Z,41.49
2016-04-27T01:45:36.087Z,41.3
2016-04-27T01:46:36.090Z,41.3
2016-04-27T01:47:36.092Z,41.39
2016-04-27T01:48:36.095Z,41.39
2016-04-27T01:49:36.099Z,41.3
2016-04-27T01:50:36.118Z,41.39
2016-04-27T01:51:36.401Z,41.59
2016-04-27T01:52:36.123Z,41.3
2016-04-27T01:53:36.141Z,41.3
2016-04-27T01:54:36.128Z,41.3
2016-04-27T01:55:36.130Z,41.3
2016-04-27T01:56:36.149Z,41.39
2016-04-27T01:57:36.136Z,41.39
2016-04-27T01:58:36.139Z,41.59
2016-04-27T01:59:36.156Z,41.39
2016-04-27T02:00:36.175Z,41.2
2016-04-27T02:01:36.178Z,41.2
2016-04-27T02:02:36.181Z,41.59
2016-04-27T02:03:36.183Z,41.39
2016-04-27T02:04:36.186Z,41.3
2016-04-27T02:05:36.204Z,41.49
2016-04-27T02:06:36.598Z,41.59
2016-04-27T02:07:36.209Z,41.59
2016-04-27T02:08:36.228Z,41.3
2016-04-27T02:09:36.215Z,41.68
2016-04-27T02:10:36.234Z,41.59
2016-04-27T02:11:36.236Z,41.68
2016-04-27T02:12:36.238Z,41.39
2016-04-27T02:13:36.241Z,41.39
2016-04-27T02:14:36.244Z,41.49
2016-04-27T02:15:36.246Z,41.39
2016-04-27T02:16:36.249Z,41.49
2016-04-27T02:17:36.268Z,41.39
2016-04-27T02:18:36.271Z,41.39
2016-04-27T02:19:36.288Z,41.2
2016-04-27T02:20:36.276Z,41.39
2016-04-27T02:21:36.857Z,41.39
2016-04-27T02:22:36.297Z,41.39
2016-04-27T02:23:36.315Z,41.3
2016-04-27T02:24:36.318Z,41.49
2016-04-27T02:25:36.321Z,41.49
2016-04-27T02:26:36.340Z,41.49
2016-04-27T02:27:36.325Z,41.49
2016-04-27T02:28:36.344Z,41.39
2016-04-27T02:29:36.348Z,41.3
2016-04-27T02:30:36.350Z,41.49
2016-04-27T02:31:36.352Z,41.49
2016-04-27T02:32:36.355Z,41.59
2016-04-27T02:33:36.358Z,41.39
2016-04-27T02:34:36.376Z,41.39
2016-04-27T02:35:36.378Z,41.3
2016-04-27T02:36:36.257Z,41.49
2016-04-27T02:37:36.383Z,41.49
2016-04-27T02:38:36.403Z,41.68
2016-04-27T02:39:36.405Z,41.59
2016-04-27T02:40:36.392Z,41.49
2016-04-27T02:41:36.411Z,41.2
2016-04-27T02:42:36.421Z,41.49
2016-04-27T02:43:36.465Z,41.49
2016-04-27T02:44:36.509Z,41.49
2016-04-27T02:45:36.570Z,41.59
2016-04-27T02:46:36.614Z,41.2
2016-04-27T02:47:36.653Z,41.49
2016-04-27T02:48:36.688Z,41.2
2016-04-27T02:49:36.690Z,41.3
2016-04-27T02:50:36.741Z,41.3
2016-04-27T02:51:36.633Z,41.78
2016-04-27T02:52:36.758Z,41.3
2016-04-27T02:53:36.783Z,41.2
2016-04-27T02:54:36.790Z,41.3
2016-04-27T02:55:36.799Z,41.49
2016-04-27T02:56:36.821Z,41.39
2016-04-27T02:57:36.829Z,41.39
2016-04-27T02:58:36.833Z,41.39
2016-04-27T02:59:36.855Z,41.39
2016-04-27T03:00:36.859Z,41.78
2016-04-27T03:01:36.847Z,41.39
2016-04-27T03:02:36.868Z,41.49
2016-04-27T03:03:36.871Z,41.78
2016-04-27T03:04:36.891Z,41.49
2016-04-27T03:05:36.878Z,41.78
2016-04-27T03:06:36.882Z,41.78
2016-04-27T03:07:36.885Z,41.78
2016-04-27T03:08:36.888Z,41.68
2016-04-27T03:09:36.892Z,41.78
2016-04-27T03:10:36.910Z,41.88
2016-04-27T03:11:36.756Z,41.49
2016-04-27T03:12:36.932Z,41.49
2016-04-27T03:13:36.935Z,41.78
2016-04-27T03:14:36.953Z,41.39
2016-04-27T03:15:36.939Z,41.88
2016-04-27T03:16:36.958Z,41.68
2016-04-27T03:17:36.945Z,41.88
2016-04-27T03:18:36.947Z,41.68
2016-04-27T03:19:36.966Z,41.78
2016-04-27T03:20:36.984Z,41.78
2016-04-27T03:21:36.987Z,41.88
2016-04-27T03:22:36.989Z,41.78
2016-04-27T03:23:36.992Z,41.78
2016-04-27T03:24:36.995Z,41.78
2016-04-27T03:25:36.998Z,41.78
2016-04-27T03:26:37.000Z,41.78
2016-04-27T03:27:37.018Z,41.78
2016-04-27T03:28:37.006Z,41.78
2016-04-27T03:29:37.024Z,41.78
2016-04-27T03:30:37.011Z,41.88
2016-04-27T03:31:37.030Z,41.78
2016-04-27T03:32:37.032Z,41.78
2016-04-27T03:33:37.051Z,41.88
2016-04-27T03:34:37.038Z,41.78
2016-04-27T03:35:37.056Z,41.49
2016-04-27T03:36:37.371Z,41.78
2016-04-27T03:37:37.718Z,41.78
2016-04-27T03:38:37.064Z,41.78
2016-04-27T03:39:37.082Z,41.78
2016-04-27T03:40:37.085Z,41.68
2016-04-27T03:41:37.087Z,41.68
2016-04-27T03:42:37.122Z,41.59
2016-04-27T03:43:37.109Z,41.88
2016-04-27T03:44:37.095Z,41.78
2016-04-27T03:45:37.114Z,41.78
2016-04-27T03:46:37.117Z,41.59
2016-04-27T03:47:37.120Z,41.68
2016-04-27T03:48:37.138Z,41.78
2016-04-27T03:49:37.141Z,41.78
2016-04-27T03:50:37.143Z,41.78
2016-04-27T03:51:37.240Z,41.59
2016-04-27T03:52:39.039Z,41.78
2016-04-27T03:53:37.152Z,41.78
2016-04-27T03:54:37.170Z,41.88
2016-04-27T03:55:37.157Z,41.78
2016-04-27T03:56:37.175Z,41.78
2016-04-27T03:57:37.193Z,41.68
2016-04-27T03:58:37.180Z,41.78
2016-04-27T03:59:37.199Z,41.68
2016-04-27T04:00:37.201Z,41.68
2016-04-27T04:01:37.204Z,41.68
2016-04-27T04:02:37.207Z,41.78
2016-04-27T04:03:37.225Z,41.78
2016-04-27T04:04:37.227Z,41.68
2016-04-27T04:05:37.231Z,41.59
2016-04-27T04:06:37.249Z,41.68
2016-04-27T04:07:37.252Z,41.78
2016-04-27T04:08:37.255Z,41.68
2016-04-27T04:09:37.242Z,41.68
2016-04-27T04:10:37.260Z,41.68
2016-04-27T04:11:37.264Z,41.68
2016-04-27T04:12:37.282Z,41.68
2016-04-27T04:13:37.284Z,41.68
2016-04-27T04:14:37.287Z,41.78
2016-04-27T04:15:37.290Z,41.78
2016-04-27T04:16:37.292Z,41.68
2016-04-27T04:17:37.296Z,41.68
2016-04-27T04:18:37.298Z,41.59
2016-04-27T04:19:37.301Z,41.68
2016-04-27T04:20:37.319Z,41.59
2016-04-27T04:21:37.212Z,41.59
2016-04-27T04:22:39.219Z,41.78
2016-04-27T04:23:37.330Z,41.78
2016-04-27T04:24:37.333Z,41.78
2016-04-27T04:25:37.335Z,41.78
2016-04-27T04:26:37.370Z,41.68
2016-04-27T04:27:37.357Z,41.68
2016-04-27T04:28:37.375Z,41.68
2016-04-27T04:29:37.363Z,41.68
2016-04-27T04:30:37.381Z,41.78
2016-04-27T04:31:37.383Z,41.68
2016-04-27T04:32:37.402Z,41.68
2016-04-27T04:33:37.388Z,41.78
2016-04-27T04:34:37.407Z,41.78
2016-04-27T04:35:37.425Z,41.68
2016-04-27T04:36:37.303Z,41.68
2016-04-27T04:37:37.618Z,41.68
2016-04-27T04:38:37.418Z,41.68
2016-04-27T04:39:37.436Z,41.78
2016-04-27T04:40:37.439Z,41.59
2016-04-27T04:41:37.442Z,41.68
2016-04-27T04:42:37.428Z,41.78
2016-04-27T04:43:37.448Z,41.78
2016-04-27T04:44:37.465Z,41.68
2016-04-27T04:45:37.468Z,41.68
2016-04-27T04:46:37.455Z,41.59
2016-04-27T04:47:37.473Z,41.68
2016-04-27T04:48:37.492Z,41.68
2016-04-27T04:49:37.494Z,41.59
2016-04-27T04:50:37.497Z,41.68
2016-04-27T04:51:37.562Z,41.78
2016-04-27T04:52:37.518Z,41.78
2016-04-27T04:53:37.506Z,41.78
2016-04-27T04:54:37.524Z,41.78
2016-04-27T04:55:37.526Z,41.78
2016-04-27T04:56:37.529Z,41.59
2016-04-27T04:57:37.547Z,41.78
2016-04-27T04:58:37.534Z,41.68
2016-04-27T04:59:37.537Z,41.68
2016-04-27T05:00:37.556Z,41.68
2016-04-27T05:01:37.621Z,41.78
2016-04-27T05:02:37.561Z,41.68
2016-04-27T05:03:37.563Z,41.78
2016-04-27T05:04:37.582Z,41.68
2016-04-27T05:05:37.585Z,41.68
2016-04-27T05:06:38.024Z,41.68
2016-04-27T05:07:37.605Z,41.68
2016-04-27T05:08:37.607Z,41.59
2016-04-27T05:09:37.595Z,41.59
2016-04-27T05:10:37.613Z,41.68
2016-04-27T05:11:37.616Z,41.68
2016-04-27T05:12:37.619Z,41.78
2016-04-27T05:13:37.621Z,41.49
2016-04-27T05:14:37.640Z,41.78
2016-04-27T05:15:37.626Z,41.88
2016-04-27T05:16:37.645Z,41.68
2016-04-27T05:17:37.647Z,41.68
2016-04-27T05:18:37.650Z,41.59
2016-04-27T05:19:37.653Z,41.68
2016-04-27T05:20:37.672Z,41.78
2016-04-27T05:21:39.034Z,41.78
2016-04-27T05:22:37.692Z,41.78
2016-04-27T05:23:37.695Z,41.88
2016-04-27T05:24:37.697Z,41.68
2016-04-27T05:25:37.685Z,41.88
2016-04-27T05:26:37.688Z,41.88
2016-04-27T05:27:37.705Z,41.59
2016-04-27T05:28:37.725Z,41.88
2016-04-27T05:29:37.743Z,41.78
2016-04-27T05:30:37.730Z,41.78
2016-04-27T05:31:37.733Z,41.88
2016-04-27T05:32:37.735Z,41.78
2016-04-27T05:33:37.754Z,41.78
2016-04-27T05:34:37.740Z,41.88
2016-04-27T05:35:37.759Z,41.39
2016-04-27T05:36:38.371Z,41.78
2016-04-27T05:37:39.671Z,41.59
2016-04-27T05:38:37.751Z,41.78
2016-04-27T05:39:37.770Z,41.88
2016-04-27T05:40:37.788Z,41.59
2016-04-27T05:41:37.790Z,41.78
2016-04-27T05:42:37.793Z,41.39
2016-04-27T05:43:37.795Z,41.78
2016-04-27T05:44:37.814Z,41.3
2016-04-27T05:45:37.817Z,41.39
2016-04-27T05:46:37.820Z,41.3
2016-04-27T05:47:37.823Z,41.59
2016-04-27T05:48:37.825Z,41.3
2016-04-27T05:49:37.859Z,41.39
2016-04-27T05:50:37.845Z,41.3
2016-04-27T05:51:38.130Z,41.49
2016-04-27T05:52:37.961Z,41.49
2016-04-27T05:53:37.854Z,41.39
2016-04-27T05:54:37.888Z,41.78
2016-04-27T05:55:37.891Z,41.68
2016-04-27T05:56:37.878Z,41.49
2016-04-27T05:57:37.881Z,41.68
2016-04-27T05:58:37.899Z,41.78
2016-04-27T05:59:37.886Z,41.68
2016-04-27T06:00:37.888Z,41.78
2016-04-27T06:01:37.891Z,41.78
2016-04-27T06:02:37.910Z,41.78
2016-04-27T06:03:37.913Z,41.68
2016-04-27T06:04:37.915Z,41.88
2016-04-27T06:05:37.933Z,41.49
2016-04-27T06:06:37.935Z,41.59
2016-04-27T06:07:37.798Z,41.59
2016-04-27T06:08:37.941Z,41.49
2016-04-27T06:09:37.959Z,41.2
2016-04-27T06:10:37.947Z,41.59
2016-04-27T06:11:37.965Z,41.39
2016-04-27T06:12:37.968Z,41.39
2016-04-27T06:13:37.971Z,41.59
2016-04-27T06:14:37.989Z,41.49
2016-04-27T06:15:37.976Z,41.59
2016-04-27T06:16:37.994Z,41.49
2016-04-27T06:17:38.012Z,41.3
2016-04-27T06:18:38.015Z,41.49
2016-04-27T06:19:38.017Z,41.88
2016-04-27T06:20:38.021Z,41.59
2016-04-27T06:21:38.008Z,41.39
2016-04-27T06:22:38.620Z,41.2
2016-04-27T06:23:38.029Z,41.49
2016-04-27T06:24:38.047Z,41.49
2016-04-27T06:25:38.034Z,41.3
2016-04-27T06:26:38.052Z,41.49
2016-04-27T06:27:38.055Z,41.68
2016-04-27T06:28:38.058Z,41.59
2016-04-27T06:29:38.060Z,41.39
2016-04-27T06:30:38.078Z,41.39
2016-04-27T06:31:38.081Z,41.39
2016-04-27T06:32:38.083Z,41.39
2016-04-27T06:33:38.086Z,41.11
2016-04-27T06:34:38.105Z,41.59
2016-04-27T06:35:38.107Z,41.59
2016-04-27T06:36:38.126Z,41.3
2016-04-27T06:37:38.690Z,41.49
2016-04-27T06:38:38.132Z,41.3
2016-04-27T06:39:38.118Z,41.49
2016-04-27T06:40:38.137Z,41.2
2016-04-27T06:41:38.140Z,41.49
2016-04-27T06:42:38.142Z,41.59
2016-04-27T06:43:38.145Z,41.39
2016-04-27T06:44:38.148Z,41.3
2016-04-27T06:45:38.165Z,41.39
2016-04-27T06:46:38.168Z,41.3
2016-04-27T06:47:38.187Z,41.3
2016-04-27T06:48:38.190Z,41.3
2016-04-27T06:49:38.209Z,41.3
2016-04-27T06:50:38.211Z,41.3
2016-04-27T06:51:38.213Z,41.22
2016-04-27T06:52:38.076Z,41.32
2016-04-27T06:53:38.219Z,41.13
2016-04-27T06:54:38.222Z,41.03
2016-04-27T06:55:38.224Z,41.03
2016-04-27T06:56:38.227Z,41.41
2016-04-27T06:57:38.245Z,41.32
2016-04-27T06:58:38.233Z,41.2
2016-04-27T06:59:38.250Z,41.22
2016-04-27T07:00:38.238Z,41.71
2016-04-27T07:01:38.256Z,41.68
2016-04-27T07:02:38.258Z,41.59
2016-04-27T07:03:38.277Z,41.59
2016-04-27T07:04:38.279Z,41.49
2016-04-27T07:05:38.282Z,41.11
2016-04-27T07:06:38.300Z,41.11
2016-04-27T07:07:38.600Z,41.13
2016-04-27T07:08:38.306Z,41.2
2016-04-27T07:09:38.308Z,41.13
2016-04-27T07:10:38.311Z,41.71
2016-04-27T07:11:38.314Z,41.32
2016-04-27T07:12:38.332Z,41.8
2016-04-27T07:13:38.335Z,41.22
2016-04-27T07:14:38.353Z,41.22
2016-04-27T07:15:38.356Z,41.61
2016-04-27T07:16:38.359Z,41.41
2016-04-27T07:17:38.362Z,41.32
2016-04-27T07:18:38.208Z,41.61
2016-04-27T07:19:38.367Z,41.61
2016-04-27T07:20:38.370Z,41.61
2016-04-27T07:21:38.387Z,41.32
2016-04-27T07:22:39.656Z,41.41
2016-04-27T07:23:38.392Z,41.51
2016-04-27T07:24:38.396Z,41.71
2016-04-27T07:25:38.398Z,41.22
2016-04-27T07:26:38.416Z,41.22
2016-04-27T07:27:38.404Z,41.41
2016-04-27T07:28:38.422Z,41.51
2016-04-27T07:29:38.424Z,41.51
2016-04-27T07:30:38.475Z,41.41
2016-04-27T07:31:40.274Z,41.2
2016-04-27T07:32:38.449Z,41.41
2016-04-27T07:33:38.452Z,41.61
2016-04-27T07:34:38.454Z,41.32
2016-04-27T07:35:38.472Z,41.51
2016-04-27T07:36:40.100Z,40.91
2016-04-27T07:37:38.493Z,41.03
2016-04-27T07:38:38.480Z,40.94
2016-04-27T07:39:38.499Z,40.74
2016-04-27T07:40:38.501Z,40.74
2016-04-27T07:41:41.269Z,40.55
2016-04-27T07:42:38.522Z,40.43
2016-04-27T07:43:38.510Z,40.34
2016-04-27T07:44:38.512Z,40.36
2016-04-27T07:45:38.529Z,40.55
2016-04-27T07:46:38.518Z,40.64
2016-04-27T07:47:38.536Z,40.94
2016-04-27T07:48:38.538Z,41.03
2016-04-27T07:49:38.557Z,41.13
2016-04-27T07:50:38.543Z,41.32
2016-04-27T07:51:39.015Z,41.41
2016-04-27T07:52:38.424Z,41.32
2016-04-27T07:53:38.583Z,41.41
2016-04-27T07:54:38.586Z,41.61
2016-04-27T07:55:38.620Z,41.41
2016-04-27T07:56:40.325Z,41.61
2016-04-27T07:57:38.609Z,41.71
2016-04-27T07:58:38.611Z,41.51
2016-04-27T07:59:38.614Z,41.22
2016-04-27T08:00:38.617Z,41.51
2016-04-27T08:01:38.636Z,41.41
2016-04-27T08:02:38.639Z,41.13
2016-04-27T08:03:38.641Z,41.32
2016-04-27T08:04:38.644Z,41.61
2016-04-27T08:05:38.646Z,41.61
2016-04-27T08:06:38.666Z,41.61
2016-04-27T08:07:38.589Z,41.51
2016-04-27T08:08:38.671Z,41.8
2016-04-27T08:09:38.673Z,41.22
2016-04-27T08:10:38.691Z,41.41
2016-04-27T08:11:39.725Z,41.61
2016-04-27T08:12:38.696Z,42.09
2016-04-27T08:13:38.699Z,41.99
2016-04-27T08:14:38.702Z,42.09
2016-04-27T08:15:38.721Z,41.61
2016-04-27T08:16:38.723Z,41.51
2016-04-27T08:17:38.726Z,41.53
2016-04-27T08:18:38.728Z,41.51
2016-04-27T08:19:38.747Z,41.13
2016-04-27T08:20:38.749Z,41.34
2016-04-27T08:21:40.206Z,41.44
2016-04-27T08:22:38.615Z,41.53
2016-04-27T08:23:38.757Z,41.61
2016-04-27T08:24:38.760Z,41.44
2016-04-27T08:25:38.778Z,41.53
2016-04-27T08:26:43.250Z,41.34
2016-04-27T08:27:38.783Z,41.24
2016-04-27T08:28:38.850Z,41.34
2016-04-27T08:29:38.820Z,41.34
2016-04-27T08:30:38.808Z,41.53
2016-04-27T08:31:38.826Z,41.53
2016-04-27T08:32:38.825Z,41.53
2016-04-27T08:33:38.829Z,41.44
2016-04-27T08:34:38.831Z,41.44
2016-04-27T08:35:38.849Z,41.63
2016-04-27T08:36:39.978Z,41.24
2016-04-27T08:37:39.402Z,41.72
2016-04-27T08:38:38.855Z,41.72
2016-04-27T08:39:38.874Z,42.11
2016-04-27T08:40:38.876Z,41.72
2016-04-27T08:41:39.082Z,41.63
2016-04-27T08:42:38.882Z,41.44
2016-04-27T08:43:38.915Z,41.82
2016-04-27T08:44:38.902Z,41.92
2016-04-27T08:45:38.904Z,42.4
2016-04-27T08:46:38.893Z,42.49
2016-04-27T08:47:38.926Z,42.4
2016-04-27T08:48:38.912Z,42.02
2016-04-27T08:49:38.932Z,41.75
2016-04-27T08:50:38.934Z,41.46
2016-04-27T08:51:38.937Z,41.84
2016-04-27T08:52:38.799Z,41.36
2016-04-27T08:53:38.973Z,41.27
2016-04-27T08:54:38.976Z,41.65
2016-04-27T08:55:38.962Z,41.65
2016-04-27T08:56:38.982Z,41.27
2016-04-27T08:57:38.984Z,41.17
2016-04-27T08:58:39.017Z,41.27
2016-04-27T08:59:40.914Z,41.46
2016-04-27T09:00:39.008Z,41.46
2016-04-27T09:01:39.011Z,41.46
2016-04-27T09:02:39.028Z,41.36
2016-04-27T09:03:39.031Z,41.55
2016-04-27T09:04:38.862Z,41.65
2016-04-27T09:05:39.037Z,41.84
2016-04-27T09:06:39.039Z,41.55
2016-04-27T09:07:40.074Z,41.75
2016-04-27T09:08:39.045Z,41.55
2016-04-27T09:09:41.582Z,41.36
2016-04-27T09:10:39.066Z,41.75
2016-04-27T09:11:39.085Z,41.65
2016-04-27T09:12:39.088Z,41.84
2016-04-27T09:13:39.090Z,41.46
2016-04-27T09:14:39.107Z,41.46
2016-04-27T09:15:39.110Z,41.55
2016-04-27T09:16:39.129Z,41.65
2016-04-27T09:17:39.116Z,41.46
2016-04-27T09:18:39.119Z,41.84
2016-04-27T09:19:39.137Z,42.13
2016-04-27T09:20:39.155Z,41.75
2016-04-27T09:21:39.143Z,42.32
2016-04-27T09:22:39.020Z,42.23
2016-04-27T09:23:39.163Z,42.32
2016-04-27T09:24:39.182Z,41.94
2016-04-27T09:25:39.168Z,41.84
2016-04-27T09:26:39.718Z,41.46
2016-04-27T09:27:39.189Z,41.84
2016-04-27T09:28:39.193Z,41.75
2016-04-27T09:29:39.195Z,41.65
2016-04-27T09:30:39.229Z,41.65
2016-04-27T09:31:39.216Z,41.46
2016-04-27T09:32:39.219Z,41.94
2016-04-27T09:33:39.222Z,41.65
2016-04-27T09:34:39.240Z,41.94
2016-04-27T09:35:39.242Z,41.75
2016-04-27T09:36:39.261Z,41.65
2016-04-27T09:37:39.248Z,41.75
2016-04-27T09:38:39.282Z,41.75
2016-04-27T09:39:39.285Z,41.84
2016-04-27T09:40:39.287Z,41.75
2016-04-27T09:41:39.275Z,41.84
2016-04-27T09:42:39.277Z,41.75
2016-04-27T09:43:39.311Z,42.23
2016-04-27T09:44:39.314Z,42.03
2016-04-27T09:45:39.316Z,42.13
2016-04-27T09:46:39.319Z,42.03
2016-04-27T09:47:39.338Z,42.23
2016-04-27T09:48:39.324Z,42.03
2016-04-27T09:49:39.343Z,42.13
2016-04-27T09:50:39.346Z,42.13
2016-04-27T09:51:39.364Z,42.13
2016-04-27T09:52:40.304Z,42.03
2016-04-27T09:53:39.729Z,42.13
2016-04-27T09:54:39.372Z,42.13
2016-04-27T09:55:39.374Z,42.13
2016-04-27T09:56:39.376Z,41.55
2016-04-27T09:57:39.396Z,41.84
2016-04-27T09:58:39.398Z,41.84
2016-04-27T09:59:39.417Z,41.96
2016-04-27T10:00:39.420Z,41.46
2016-04-27T10:01:39.437Z,41.48
2016-04-27T10:02:39.425Z,41.84
2016-04-27T10:03:39.459Z,41.96
2016-04-27T10:04:39.445Z,41.65
2016-04-27T10:05:39.448Z,41.96
2016-04-27T10:06:39.467Z,41.86
2016-04-27T10:07:40.142Z,41.77
2016-04-27T10:08:39.472Z,41.67
2016-04-27T10:09:39.490Z,41.55
2016-04-27T10:10:39.494Z,41.48
2016-04-27T10:11:39.558Z,41.48
2016-04-27T10:12:39.498Z,41.48
2016-04-27T10:13:39.517Z,41.57
2016-04-27T10:14:39.535Z,41.48
2016-04-27T10:15:39.522Z,41.57
2016-04-27T10:16:40.727Z,41.55
2016-04-27T10:17:39.528Z,41.38
2016-04-27T10:18:39.546Z,41.48
2016-04-27T10:19:39.533Z,41.48
2016-04-27T10:20:39.536Z,41.19
2016-04-27T10:21:39.569Z,41.09
2016-04-27T10:22:39.613Z,40.7
2016-04-27T10:23:39.639Z,40.7
2016-04-27T10:24:39.579Z,40.61
2016-04-27T10:25:39.597Z,40.61
2016-04-27T10:26:39.601Z,40.39
2016-04-27T10:27:39.619Z,39.94
2016-04-27T10:28:39.607Z,39.04
2016-04-27T10:29:39.626Z,39.04
2016-04-27T10:30:39.628Z,38.46
2016-04-27T10:31:39.631Z,38.37
2016-04-27T10:32:39.633Z,38.66
2016-04-27T10:33:39.651Z,37.89
2016-04-27T10:34:39.654Z,38.08
2016-04-27T10:35:39.657Z,37.79
2016-04-27T10:36:39.691Z,38.1
2016-04-27T10:37:39.881Z,38.29
2016-04-27T10:38:39.697Z,38.01
2016-04-27T10:39:39.714Z,38.37
2016-04-27T10:40:39.702Z,38.97
2016-04-27T10:41:39.688Z,38.68
2016-04-27T10:42:39.708Z,38.97
2016-04-27T10:43:39.710Z,38.97
2016-04-27T10:44:39.728Z,38.49
2016-04-27T10:45:44.918Z,38.97
2016-04-27T10:46:39.733Z,38.87
2016-04-27T10:47:39.752Z,38.97
2016-04-27T10:48:39.755Z,38.78
2016-04-27T10:49:39.757Z,39.26
2016-04-27T10:50:39.791Z,40.42
2016-04-27T10:51:39.778Z,38.87
2016-04-27T10:52:40.280Z,38.97
2016-04-27T10:53:39.627Z,39.16
2016-04-27T10:54:39.802Z,38.97
2016-04-27T10:55:39.789Z,39.36
2016-04-27T10:56:39.823Z,39.54
2016-04-27T10:57:39.840Z,39.45
2016-04-27T10:58:39.829Z,39.26
2016-04-27T10:59:39.846Z,39.47
2016-04-27T11:00:39.853Z,39.76
2016-04-27T11:01:39.840Z,39.66
2016-04-27T11:02:39.858Z,39.45
2016-04-27T11:03:39.861Z,39.47
2016-04-27T11:04:39.880Z,39.16
2016-04-27T11:05:39.883Z,39.28
2016-04-27T11:06:39.869Z,40.15
2016-04-27T11:07:40.887Z,40.03
2016-04-27T11:08:40.344Z,40.15
2016-04-27T11:09:39.908Z,40.03
2016-04-27T11:10:39.896Z,39.84
2016-04-27T11:11:39.930Z,39.84
2016-04-27T11:12:39.948Z,39.76
2016-04-27T11:13:39.935Z,39.66
2016-04-27T11:14:39.954Z,39.66
2016-04-27T11:15:39.956Z,39.86
2016-04-27T11:16:39.974Z,39.76
2016-04-27T11:17:39.961Z,39.86
2016-04-27T11:18:39.980Z,39.86
2016-04-27T11:19:39.982Z,39.76
2016-04-27T11:20:39.985Z,40.05
2016-04-27T11:21:40.019Z,40.15
2016-04-27T11:22:40.272Z,40.05
2016-04-27T11:23:40.009Z,40.15
2016-04-27T11:24:40.011Z,40.05
2016-04-27T11:25:40.014Z,40.15
2016-04-27T11:26:40.033Z,39.66
2016-04-27T11:27:40.035Z,39.76
2016-04-27T11:28:40.038Z,39.66
2016-04-27T11:29:40.056Z,39.66
2016-04-27T11:30:40.044Z,39.66
2016-04-27T11:31:41.562Z,39.37
2016-04-27T11:32:40.064Z,39.47
2016-04-27T11:33:40.098Z,39.47
2016-04-27T11:34:40.100Z,39.37
2016-04-27T11:35:40.103Z,39.18
2016-04-27T11:36:40.106Z,39.18
2016-04-27T11:37:40.328Z,39.37
2016-04-27T11:38:40.144Z,39.47
2016-04-27T11:39:40.146Z,39.37
2016-04-27T11:40:40.132Z,39.28
2016-04-27T11:41:40.151Z,39.37
2016-04-27T11:42:40.154Z,39.49
2016-04-27T11:43:40.157Z,39.39
2016-04-27T11:44:40.159Z,38.79
2016-04-27T11:45:40.177Z,38.99
2016-04-27T11:46:40.164Z,38.99
2016-04-27T11:47:40.182Z,39.37
2016-04-27T11:48:40.185Z,39.09
2016-04-27T11:49:40.215Z,39.09
2016-04-27T11:50:40.263Z,38.7
2016-04-27T11:51:40.326Z,38.99
2016-04-27T11:52:40.796Z,38.79
2016-04-27T11:53:40.468Z,38.89
2016-04-27T11:54:40.468Z,37.93
2016-04-27T11:55:40.518Z,37.83
2016-04-27T11:56:40.506Z,37.54
2016-04-27T11:57:40.539Z,35.61
2016-04-27T11:58:40.558Z,35.13
2016-04-27T11:59:40.586Z,34.44
2016-04-27T12:00:40.579Z,35.13
2016-04-27T12:01:40.603Z,34.64
2016-04-27T12:02:40.611Z,35.52
2016-04-27T12:03:40.620Z,35.61
2016-04-27T12:04:40.642Z,34.84
2016-04-27T12:05:40.647Z,34.84
2016-04-27T12:06:40.652Z,35.02
2016-04-27T12:07:40.531Z,34.72
2016-04-27T12:08:40.693Z,34.26
2016-04-27T12:09:40.697Z,34.45
2016-04-27T12:10:40.701Z,34.45
2016-04-27T12:11:40.705Z,34.36
2016-04-27T12:12:40.708Z,34.74
2016-04-27T12:13:40.711Z,34.55
2016-04-27T12:14:40.730Z,34.26
2016-04-27T12:15:40.733Z,34.36
2016-04-27T12:16:40.736Z,34.24
2016-04-27T12:17:40.755Z,34.63
2016-04-27T12:18:40.758Z,34.14
2016-04-27T12:19:40.760Z,34.53
2016-04-27T12:20:40.764Z,33.47
2016-04-27T12:21:40.782Z,34.45
2016-04-27T12:22:40.799Z,34.92
2016-04-27T12:23:41.615Z,35.42
2016-04-27T12:24:40.791Z,34.94
2016-04-27T12:25:40.793Z,34.84
2016-04-27T12:26:40.811Z,34.84
2016-04-27T12:27:40.813Z,35.52
2016-04-27T12:28:40.816Z,35.52
2016-04-27T12:29:40.834Z,35.13
2016-04-27T12:30:40.821Z,34.26
2016-04-27T12:31:40.855Z,34.05
2016-04-27T12:32:40.858Z,35.03
2016-04-27T12:33:40.876Z,35.61
2016-04-27T12:34:40.879Z,35.22
2016-04-27T12:35:40.882Z,35.03
2016-04-27T12:36:40.884Z,35.61
2016-04-27T12:37:41.184Z,36.09
2016-04-27T12:38:40.906Z,35.71
2016-04-27T12:39:40.909Z,35.71
2016-04-27T12:40:40.896Z,35.71
2016-04-27T12:41:40.914Z,35.61
2016-04-27T12:42:40.932Z,34.36
2016-04-27T12:43:40.934Z,34.26
2016-04-27T12:44:40.953Z,34.55
2016-04-27T12:45:40.940Z,35.32
2016-04-27T12:46:40.958Z,35.03
2016-04-27T12:47:40.961Z,34.94
2016-04-27T12:48:40.964Z,34.84
2016-04-27T12:49:40.966Z,35.13
2016-04-27T12:50:40.985Z,34.36
2016-04-27T12:51:40.988Z,34.84
2016-04-27T12:52:41.255Z,33.58
2016-04-27T12:53:40.836Z,33.1
2016-04-27T12:54:41.011Z,33
2016-04-27T12:55:41.013Z,32.43